sensor_id;sensor_type;location;lat;lon;timestamp;P1;durP1;ratioP1;P2;durP2;ratioP2
64335;SDS011;50672;53.362;-6.240;2023-02-14T00:02:20;19.43;;;11.40;;
64335;SDS011;50672;53.362;-6.240;2023-02-14T00:04:51;15.30;;;10.20;;
64335;SDS011;50672;53.362;-6.240;2023-02-14T00:07:20;18.27;;;10.60;;
64335;SDS011;50672;53.362;-6.240;2023-02-14T00:09:48;17.60;;;10.07;;
64335;SDS011;50672;53.362;-6.240;2023-02-14T00:12:18;15.70;;;9.50;;
64335;SDS011;50672;53.362;-6.240;2023-02-14T00:14:48;14.87;;;10.53;;
64335;SDS011;50672;53.362;-6.240;2023-02-14T00:17:36;15.40;;;10.37;;
64335;SDS011;50672;53.362;-6.240;2023-02-14T00:20:06;19.73;;;10.37;;
64335;SDS011;50672;53.362;-6.240;2023-02-14T00:22:33;15.20;;;9.67;;
64335;SDS011;50672;53.362;-6.240;2023-02-14T00:25:05;13.03;;;9.40;;
64335;SDS011;50672;53.362;-6.240;2023-02-14T00:27:34;18.00;;;10.23;;
64335;SDS011;50672;53.362;-6.240;2023-02-14T00:30:07;15.80;;;9.95;;
64335;SDS011;50672;53.362;-6.240;2023-02-14T00:32:39;17.40;;;10.53;;
64335;SDS011;50672;53.362;-6.240;2023-02-14T00:35:09;15.13;;;10.03;;
64335;SDS011;50672;53.362;-6.240;2023-02-14T00:37:42;15.25;;;10.00;;
64335;SDS011;50672;53.362;-6.240;2023-02-14T00:40:14;19.33;;;11.90;;
64335;SDS011;50672;53.362;-6.240;2023-02-14T00:42:43;16.60;;;10.73;;
64335;SDS011;50672;53.362;-6.240;2023-02-14T00:45:10;19.80;;;11.07;;
64335;SDS011;50672;53.362;-6.240;2023-02-14T00:47:40;22.80;;;11.20;;
64335;SDS011;50672;53.362;-6.240;2023-02-14T00:50:10;20.20;;;11.83;;
64335;SDS011;50672;53.362;-6.240;2023-02-14T00:52:39;15.30;;;10.77;;
64335;SDS011;50672;53.362;-6.240;2023-02-14T00:55:09;20.70;;;11.53;;
64335;SDS011;50672;53.362;-6.240;2023-02-14T00:57:41;19.63;;;11.45;;
64335;SDS011;50672;53.362;-6.240;2023-02-14T01:00:14;18.63;;;11.48;;
64335;SDS011;50672;53.362;-6.240;2023-02-14T01:02:42;18.10;;;10.33;;
64335;SDS011;50672;53.362;-6.240;2023-02-14T01:05:10;17.40;;;10.50;;
64335;SDS011;50672;53.362;-6.240;2023-02-14T01:07:39;20.50;;;10.77;;
64335;SDS011;50672;53.362;-6.240;2023-02-14T01:10:15;16.77;;;10.23;;
64335;SDS011;50672;53.362;-6.240;2023-02-14T01:12:46;20.00;;;12.00;;
64335;SDS011;50672;53.362;-6.240;2023-02-14T01:15:18;30.95;;;15.60;;
64335;SDS011;50672;53.362;-6.240;2023-02-14T01:17:48;29.33;;;14.93;;
64335;SDS011;50672;53.362;-6.240;2023-02-14T01:20:17;20.10;;;11.93;;
64335;SDS011;50672;53.362;-6.240;2023-02-14T01:22:45;15.50;;;9.70;;
64335;SDS011;50672;53.362;-6.240;2023-02-14T01:25:14;14.97;;;9.03;;
64335;SDS011;50672;53.362;-6.240;2023-02-14T01:27:45;16.30;;;9.60;;
64335;SDS011;50672;53.362;-6.240;2023-02-14T01:30:14;16.83;;;9.60;;
64335;SDS011;50672;53.362;-6.240;2023-02-14T01:32:43;19.90;;;10.63;;
64335;SDS011;50672;53.362;-6.240;2023-02-14T01:35:14;17.10;;;9.97;;
64335;SDS011;50672;53.362;-6.240;2023-02-14T01:37:45;17.17;;;10.90;;
64335;SDS011;50672;53.362;-6.240;2023-02-14T01:40:14;18.33;;;10.40;;
64335;SDS011;50672;53.362;-6.240;2023-02-14T01:42:43;18.80;;;10.87;;
64335;SDS011;50672;53.362;-6.240;2023-02-14T01:45:19;17.60;;;10.80;;
64335;SDS011;50672;53.362;-6.240;2023-02-14T01:47:49;19.75;;;10.93;;
64335;SDS011;50672;53.362;-6.240;2023-02-14T01:52:57;16.35;;;10.48;;
64335;SDS011;50672;53.362;-6.240;2023-02-14T01:55:30;19.90;;;11.67;;
64335;SDS011;50672;53.362;-6.240;2023-02-14T01:58:01;18.60;;;11.53;;
64335;SDS011;50672;53.362;-6.240;2023-02-14T02:00:33;17.63;;;10.60;;
64335;SDS011;50672;53.362;-6.240;2023-02-14T02:03:33;18.47;;;11.93;;
64335;SDS011;50672;53.362;-6.240;2023-02-14T02:06:17;18.65;;;11.50;;
64335;SDS011;50672;53.362;-6.240;2023-02-14T02:08:51;25.30;;;11.33;;
64335;SDS011;50672;53.362;-6.240;2023-02-14T02:11:31;18.00;;;11.67;;
64335;SDS011;50672;53.362;-6.240;2023-02-14T02:13:59;20.43;;;12.97;;
64335;SDS011;50672;53.362;-6.240;2023-02-14T02:16:30;19.47;;;12.00;;
64335;SDS011;50672;53.362;-6.240;2023-02-14T02:19:39;22.37;;;12.50;;
64335;SDS011;50672;53.362;-6.240;2023-02-14T02:33:50;23.10;;;13.50;;
64335;SDS011;50672;53.362;-6.240;2023-02-14T02:47:21;26.33;;;13.57;;
64335;SDS011;50672;53.362;-6.240;2023-02-14T02:53:21;23.70;;;13.80;;
64335;SDS011;50672;53.362;-6.240;2023-02-14T02:58:43;25.27;;;13.30;;
64335;SDS011;50672;53.362;-6.240;2023-02-14T03:01:16;23.10;;;13.63;;
64335;SDS011;50672;53.362;-6.240;2023-02-14T03:03:51;23.10;;;12.00;;
64335;SDS011;50672;53.362;-6.240;2023-02-14T03:06:58;21.90;;;12.23;;
64335;SDS011;50672;53.362;-6.240;2023-02-14T03:12:06;22.60;;;12.67;;
64335;SDS011;50672;53.362;-6.240;2023-02-14T03:17:36;21.33;;;12.57;;
64335;SDS011;50672;53.362;-6.240;2023-02-14T03:28:18;21.33;;;12.73;;
64335;SDS011;50672;53.362;-6.240;2023-02-14T03:31:13;29.33;;;12.60;;
64335;SDS011;50672;53.362;-6.240;2023-02-14T03:33:54;26.13;;;13.97;;
64335;SDS011;50672;53.362;-6.240;2023-02-14T03:36:33;29.70;;;13.67;;
64335;SDS011;50672;53.362;-6.240;2023-02-14T03:39:14;27.93;;;15.20;;
64335;SDS011;50672;53.362;-6.240;2023-02-14T03:42:18;31.00;;;15.03;;
64335;SDS011;50672;53.362;-6.240;2023-02-14T03:44:50;26.63;;;14.33;;
64335;SDS011;50672;53.362;-6.240;2023-02-14T03:47:23;31.60;;;16.52;;
64335;SDS011;50672;53.362;-6.240;2023-02-14T03:49:58;30.13;;;15.80;;
64335;SDS011;50672;53.362;-6.240;2023-02-14T03:52:29;27.23;;;15.20;;
64335;SDS011;50672;53.362;-6.240;2023-02-14T03:55:01;36.77;;;15.00;;
64335;SDS011;50672;53.362;-6.240;2023-02-14T03:57:34;33.77;;;16.20;;
64335;SDS011;50672;53.362;-6.240;2023-02-14T04:00:10;37.80;;;16.87;;
64335;SDS011;50672;53.362;-6.240;2023-02-14T04:02:42;31.47;;;16.50;;
64335;SDS011;50672;53.362;-6.240;2023-02-14T04:05:18;33.03;;;17.03;;
64335;SDS011;50672;53.362;-6.240;2023-02-14T04:07:56;33.73;;;17.23;;
64335;SDS011;50672;53.362;-6.240;2023-02-14T04:12:55;36.60;;;15.87;;
64335;SDS011;50672;53.362;-6.240;2023-02-14T04:15:22;41.27;;;19.23;;
64335;SDS011;50672;53.362;-6.240;2023-02-14T04:17:50;31.90;;;16.23;;
64335;SDS011;50672;53.362;-6.240;2023-02-14T04:20:36;26.03;;;14.97;;
64335;SDS011;50672;53.362;-6.240;2023-02-14T04:23:05;27.23;;;14.63;;
64335;SDS011;50672;53.362;-6.240;2023-02-14T04:25:34;28.73;;;14.23;;
64335;SDS011;50672;53.362;-6.240;2023-02-14T04:28:07;21.25;;;12.27;;
64335;SDS011;50672;53.362;-6.240;2023-02-14T04:30:35;24.43;;;13.63;;
64335;SDS011;50672;53.362;-6.240;2023-02-14T04:33:03;23.30;;;12.27;;
64335;SDS011;50672;53.362;-6.240;2023-02-14T04:35:33;22.43;;;13.30;;
64335;SDS011;50672;53.362;-6.240;2023-02-14T04:38:03;21.13;;;12.37;;
64335;SDS011;50672;53.362;-6.240;2023-02-14T04:40:33;23.40;;;13.27;;
64335;SDS011;50672;53.362;-6.240;2023-02-14T04:43:05;18.88;;;10.90;;
64335;SDS011;50672;53.362;-6.240;2023-02-14T04:45:36;23.33;;;12.50;;
64335;SDS011;50672;53.362;-6.240;2023-02-14T04:48:08;30.48;;;14.45;;
64335;SDS011;50672;53.362;-6.240;2023-02-14T04:50:36;24.80;;;12.23;;
64335;SDS011;50672;53.362;-6.240;2023-02-14T04:53:06;26.87;;;13.30;;
64335;SDS011;50672;53.362;-6.240;2023-02-14T04:55:38;21.00;;;11.70;;
64335;SDS011;50672;53.362;-6.240;2023-02-14T04:58:09;23.97;;;13.23;;
64335;SDS011;50672;53.362;-6.240;2023-02-14T05:00:40;21.00;;;10.70;;
64335;SDS011;50672;53.362;-6.240;2023-02-14T05:03:08;22.97;;;12.20;;
64335;SDS011;50672;53.362;-6.240;2023-02-14T05:05:36;20.80;;;10.87;;
64335;SDS011;50672;53.362;-6.240;2023-02-14T05:08:09;18.60;;;10.57;;
64335;SDS011;50672;53.362;-6.240;2023-02-14T05:10:39;21.27;;;10.10;;
64335;SDS011;50672;53.362;-6.240;2023-02-14T05:13:06;15.80;;;9.40;;
64335;SDS011;50672;53.362;-6.240;2023-02-14T05:15:35;21.13;;;10.07;;
64335;SDS011;50672;53.362;-6.240;2023-02-14T05:18:03;18.87;;;10.13;;
64335;SDS011;50672;53.362;-6.240;2023-02-14T05:20:36;16.63;;;9.30;;
64335;SDS011;50672;53.362;-6.240;2023-02-14T05:23:06;18.45;;;10.35;;
64335;SDS011;50672;53.362;-6.240;2023-02-14T05:25:39;23.83;;;11.13;;
64335;SDS011;50672;53.362;-6.240;2023-02-14T05:28:08;19.73;;;9.97;;
64335;SDS011;50672;53.362;-6.240;2023-02-14T05:30:36;21.73;;;10.63;;
64335;SDS011;50672;53.362;-6.240;2023-02-14T05:33:04;20.53;;;11.10;;
64335;SDS011;50672;53.362;-6.240;2023-02-14T05:35:33;23.70;;;10.73;;
64335;SDS011;50672;53.362;-6.240;2023-02-14T05:38:01;19.77;;;10.47;;
64335;SDS011;50672;53.362;-6.240;2023-02-14T05:40:32;20.47;;;10.70;;
64335;SDS011;50672;53.362;-6.240;2023-02-14T05:43:02;17.37;;;9.57;;
64335;SDS011;50672;53.362;-6.240;2023-02-14T05:45:34;19.70;;;10.18;;
64335;SDS011;50672;53.362;-6.240;2023-02-14T05:48:03;21.20;;;10.27;;
64335;SDS011;50672;53.362;-6.240;2023-02-14T05:50:36;24.93;;;10.93;;
64335;SDS011;50672;53.362;-6.240;2023-02-14T05:53:06;18.33;;;10.60;;
64335;SDS011;50672;53.362;-6.240;2023-02-14T05:55:37;24.17;;;11.47;;
64335;SDS011;50672;53.362;-6.240;2023-02-14T05:58:05;20.93;;;11.33;;
64335;SDS011;50672;53.362;-6.240;2023-02-14T06:00:33;18.67;;;11.60;;
64335;SDS011;50672;53.362;-6.240;2023-02-14T06:03:08;24.47;;;12.20;;
64335;SDS011;50672;53.362;-6.240;2023-02-14T06:05:37;20.97;;;10.93;;
64335;SDS011;50672;53.362;-6.240;2023-02-14T06:10:37;25.70;;;11.37;;
64335;SDS011;50672;53.362;-6.240;2023-02-14T06:13:05;26.17;;;11.87;;
64335;SDS011;50672;53.362;-6.240;2023-02-14T06:18:07;21.60;;;11.63;;
64335;SDS011;50672;53.362;-6.240;2023-02-14T06:20:39;25.67;;;11.73;;
64335;SDS011;50672;53.362;-6.240;2023-02-14T06:23:07;25.07;;;13.77;;
64335;SDS011;50672;53.362;-6.240;2023-02-14T06:25:35;22.87;;;11.77;;
64335;SDS011;50672;53.362;-6.240;2023-02-14T06:28:06;22.63;;;12.10;;
64335;SDS011;50672;53.362;-6.240;2023-02-14T06:30:35;23.27;;;12.10;;
64335;SDS011;50672;53.362;-6.240;2023-02-14T06:33:06;25.63;;;12.77;;
64335;SDS011;50672;53.362;-6.240;2023-02-14T06:35:41;23.33;;;11.87;;
64335;SDS011;50672;53.362;-6.240;2023-02-14T06:38:11;27.47;;;13.30;;
64335;SDS011;50672;53.362;-6.240;2023-02-14T06:40:39;23.70;;;12.17;;
64335;SDS011;50672;53.362;-6.240;2023-02-14T06:43:07;21.17;;;11.70;;
64335;SDS011;50672;53.362;-6.240;2023-02-14T06:45:36;24.33;;;11.90;;
64335;SDS011;50672;53.362;-6.240;2023-02-14T06:48:07;26.97;;;11.87;;
64335;SDS011;50672;53.362;-6.240;2023-02-14T06:50:36;24.87;;;11.57;;
64335;SDS011;50672;53.362;-6.240;2023-02-14T06:53:03;22.53;;;11.07;;
64335;SDS011;50672;53.362;-6.240;2023-02-14T06:55:37;22.07;;;10.60;;
64335;SDS011;50672;53.362;-6.240;2023-02-14T06:58:09;19.80;;;11.87;;
64335;SDS011;50672;53.362;-6.240;2023-02-14T07:03:10;20.97;;;10.47;;
64335;SDS011;50672;53.362;-6.240;2023-02-14T07:05:46;19.77;;;10.40;;
64335;SDS011;50672;53.362;-6.240;2023-02-14T07:08:18;18.17;;;10.37;;
64335;SDS011;50672;53.362;-6.240;2023-02-14T07:10:46;15.60;;;8.83;;
64335;SDS011;50672;53.362;-6.240;2023-02-14T07:13:14;20.37;;;9.83;;
64335;SDS011;50672;53.362;-6.240;2023-02-14T07:15:41;14.03;;;8.80;;
64335;SDS011;50672;53.362;-6.240;2023-02-14T07:18:15;15.30;;;9.13;;
64335;SDS011;50672;53.362;-6.240;2023-02-14T07:20:45;20.20;;;10.57;;
64335;SDS011;50672;53.362;-6.240;2023-02-14T07:23:13;15.47;;;8.83;;
64335;SDS011;50672;53.362;-6.240;2023-02-14T07:25:46;16.13;;;9.60;;
64335;SDS011;50672;53.362;-6.240;2023-02-14T07:28:14;18.43;;;9.27;;
64335;SDS011;50672;53.362;-6.240;2023-02-14T07:30:42;16.20;;;9.33;;
64335;SDS011;50672;53.362;-6.240;2023-02-14T07:33:13;16.53;;;9.13;;
64335;SDS011;50672;53.362;-6.240;2023-02-14T07:35:44;13.60;;;7.70;;
64335;SDS011;50672;53.362;-6.240;2023-02-14T07:38:11;16.57;;;7.97;;
64335;SDS011;50672;53.362;-6.240;2023-02-14T07:40:39;14.47;;;8.03;;
64335;SDS011;50672;53.362;-6.240;2023-02-14T07:43:10;15.90;;;8.10;;
64335;SDS011;50672;53.362;-6.240;2023-02-14T07:45:38;15.37;;;9.17;;
64335;SDS011;50672;53.362;-6.240;2023-02-14T07:48:07;16.73;;;8.47;;
64335;SDS011;50672;53.362;-6.240;2023-02-14T07:50:40;18.90;;;8.13;;
64335;SDS011;50672;53.362;-6.240;2023-02-14T07:53:12;14.67;;;8.43;;
64335;SDS011;50672;53.362;-6.240;2023-02-14T07:55:41;16.90;;;8.20;;
64335;SDS011;50672;53.362;-6.240;2023-02-14T07:58:12;18.23;;;9.10;;
64335;SDS011;50672;53.362;-6.240;2023-02-14T08:00:42;16.87;;;7.50;;
64335;SDS011;50672;53.362;-6.240;2023-02-14T08:03:15;15.82;;;7.97;;
64335;SDS011;50672;53.362;-6.240;2023-02-14T08:05:44;20.00;;;7.87;;
64335;SDS011;50672;53.362;-6.240;2023-02-14T08:08:24;14.23;;;7.57;;
64335;SDS011;50672;53.362;-6.240;2023-02-14T08:10:53;15.53;;;7.57;;
64335;SDS011;50672;53.362;-6.240;2023-02-14T08:13:24;13.47;;;7.20;;
64335;SDS011;50672;53.362;-6.240;2023-02-14T08:15:55;14.17;;;8.30;;
64335;SDS011;50672;53.362;-6.240;2023-02-14T08:18:39;18.05;;;6.70;;
64335;SDS011;50672;53.362;-6.240;2023-02-14T08:21:09;18.53;;;9.50;;
64335;SDS011;50672;53.362;-6.240;2023-02-14T08:23:40;18.63;;;9.60;;
64335;SDS011;50672;53.362;-6.240;2023-02-14T08:26:06;17.00;;;8.70;;
64335;SDS011;50672;53.362;-6.240;2023-02-14T08:28:36;17.67;;;9.10;;
64335;SDS011;50672;53.362;-6.240;2023-02-14T08:31:04;17.70;;;9.03;;
64335;SDS011;50672;53.362;-6.240;2023-02-14T08:33:34;18.10;;;9.10;;
64335;SDS011;50672;53.362;-6.240;2023-02-14T08:36:02;17.27;;;9.17;;
64335;SDS011;50672;53.362;-6.240;2023-02-14T08:38:30;18.50;;;9.70;;
64335;SDS011;50672;53.362;-6.240;2023-02-14T08:41:00;18.00;;;9.37;;
64335;SDS011;50672;53.362;-6.240;2023-02-14T08:43:33;21.90;;;9.40;;
64335;SDS011;50672;53.362;-6.240;2023-02-14T08:46:01;18.83;;;9.70;;
64335;SDS011;50672;53.362;-6.240;2023-02-14T08:48:29;20.53;;;9.60;;
64335;SDS011;50672;53.362;-6.240;2023-02-14T08:50:58;24.80;;;9.30;;
64335;SDS011;50672;53.362;-6.240;2023-02-14T08:53:30;22.58;;;9.45;;
64335;SDS011;50672;53.362;-6.240;2023-02-14T08:56:05;20.47;;;8.20;;
64335;SDS011;50672;53.362;-6.240;2023-02-14T08:58:35;21.20;;;8.50;;
64335;SDS011;50672;53.362;-6.240;2023-02-14T09:01:07;19.37;;;9.57;;
64335;SDS011;50672;53.362;-6.240;2023-02-14T09:03:36;22.50;;;7.80;;
64335;SDS011;50672;53.362;-6.240;2023-02-14T09:06:07;22.37;;;8.53;;
64335;SDS011;50672;53.362;-6.240;2023-02-14T09:08:39;17.40;;;7.70;;
64335;SDS011;50672;53.362;-6.240;2023-02-14T09:11:07;17.57;;;6.77;;
64335;SDS011;50672;53.362;-6.240;2023-02-14T09:13:36;15.93;;;7.23;;
64335;SDS011;50672;53.362;-6.240;2023-02-14T09:16:07;20.57;;;7.43;;
64335;SDS011;50672;53.362;-6.240;2023-02-14T09:18:36;14.20;;;6.27;;
64335;SDS011;50672;53.362;-6.240;2023-02-14T09:21:06;13.97;;;6.33;;
64335;SDS011;50672;53.362;-6.240;2023-02-14T09:23:40;12.20;;;5.23;;
64335;SDS011;50672;53.362;-6.240;2023-02-14T09:26:09;14.20;;;6.43;;
64335;SDS011;50672;53.362;-6.240;2023-02-14T09:28:38;11.23;;;4.70;;
64335;SDS011;50672;53.362;-6.240;2023-02-14T09:33:36;9.17;;;4.07;;
64335;SDS011;50672;53.362;-6.240;2023-02-14T09:36:05;8.33;;;4.70;;
64335;SDS011;50672;53.362;-6.240;2023-02-14T09:38:44;8.87;;;3.60;;
64335;SDS011;50672;53.362;-6.240;2023-02-14T09:41:29;10.00;;;3.90;;
64335;SDS011;50672;53.362;-6.240;2023-02-14T09:44:03;8.87;;;3.60;;
64335;SDS011;50672;53.362;-6.240;2023-02-14T09:46:39;12.17;;;4.40;;
64335;SDS011;50672;53.362;-6.240;2023-02-14T09:49:12;15.53;;;5.00;;
64335;SDS011;50672;53.362;-6.240;2023-02-14T09:51:45;13.33;;;5.13;;
64335;SDS011;50672;53.362;-6.240;2023-02-14T09:54:22;15.40;;;4.23;;
64335;SDS011;50672;53.362;-6.240;2023-02-14T09:57:00;13.97;;;4.30;;
64335;SDS011;50672;53.362;-6.240;2023-02-14T09:59:52;13.83;;;3.97;;
64335;SDS011;50672;53.362;-6.240;2023-02-14T10:02:48;13.40;;;4.33;;
64335;SDS011;50672;53.362;-6.240;2023-02-14T10:05:53;18.57;;;4.50;;
64335;SDS011;50672;53.362;-6.240;2023-02-14T10:08:39;7.77;;;3.47;;
64335;SDS011;50672;53.362;-6.240;2023-02-14T10:11:21;10.65;;;3.30;;
64335;SDS011;50672;53.362;-6.240;2023-02-14T10:13:52;9.40;;;3.70;;
64335;SDS011;50672;53.362;-6.240;2023-02-14T10:19:18;13.17;;;4.30;;
64335;SDS011;50672;53.362;-6.240;2023-02-14T10:21:58;18.73;;;5.93;;
64335;SDS011;50672;53.362;-6.240;2023-02-14T10:30:06;12.50;;;3.93;;
64335;SDS011;50672;53.362;-6.240;2023-02-14T10:41:54;14.27;;;5.38;;
64335;SDS011;50672;53.362;-6.240;2023-02-14T10:44:46;13.93;;;4.17;;
64335;SDS011;50672;53.362;-6.240;2023-02-14T10:50:12;15.93;;;3.90;;
64335;SDS011;50672;53.362;-6.240;2023-02-14T10:58:37;11.40;;;4.00;;
64335;SDS011;50672;53.362;-6.240;2023-02-14T11:01:13;14.33;;;4.27;;
64335;SDS011;50672;53.362;-6.240;2023-02-14T11:04:01;17.83;;;5.17;;
64335;SDS011;50672;53.362;-6.240;2023-02-14T11:06:32;14.70;;;5.07;;
64335;SDS011;50672;53.362;-6.240;2023-02-14T11:08:58;14.13;;;4.63;;
64335;SDS011;50672;53.362;-6.240;2023-02-14T11:13:55;15.30;;;4.17;;
64335;SDS011;50672;53.362;-6.240;2023-02-14T11:21:42;20.93;;;4.87;;
64335;SDS011;50672;53.362;-6.240;2023-02-14T11:26:49;11.53;;;3.70;;
64335;SDS011;50672;53.362;-6.240;2023-02-14T11:29:32;7.80;;;3.17;;
64335;SDS011;50672;53.362;-6.240;2023-02-14T11:32:09;10.53;;;3.03;;
64335;SDS011;50672;53.362;-6.240;2023-02-14T11:34:45;8.53;;;3.43;;
64335;SDS011;50672;53.362;-6.240;2023-02-14T11:39:48;9.33;;;4.00;;
64335;SDS011;50672;53.362;-6.240;2023-02-14T11:42:50;17.00;;;4.37;;
64335;SDS011;50672;53.362;-6.240;2023-02-14T11:50:40;10.63;;;2.83;;
64335;SDS011;50672;53.362;-6.240;2023-02-14T11:53:09;19.00;;;5.10;;
64335;SDS011;50672;53.362;-6.240;2023-02-14T11:55:37;11.67;;;3.17;;
64335;SDS011;50672;53.362;-6.240;2023-02-14T11:58:06;14.43;;;3.90;;
64335;SDS011;50672;53.362;-6.240;2023-02-14T12:00:49;11.50;;;3.47;;
64335;SDS011;50672;53.362;-6.240;2023-02-14T12:03:18;8.60;;;3.00;;
64335;SDS011;50672;53.362;-6.240;2023-02-14T12:05:46;12.43;;;3.57;;
64335;SDS011;50672;53.362;-6.240;2023-02-14T12:08:15;15.13;;;5.10;;
64335;SDS011;50672;53.362;-6.240;2023-02-14T12:11:00;16.00;;;3.70;;
64335;SDS011;50672;53.362;-6.240;2023-02-14T12:13:29;13.70;;;3.57;;
64335;SDS011;50672;53.362;-6.240;2023-02-14T12:15:58;11.57;;;3.23;;
64335;SDS011;50672;53.362;-6.240;2023-02-14T12:19:58;7.43;;;2.33;;
64335;SDS011;50672;53.362;-6.240;2023-02-14T12:22:33;11.35;;;3.13;;
64335;SDS011;50672;53.362;-6.240;2023-02-14T12:27:57;11.17;;;3.43;;
64335;SDS011;50672;53.362;-6.240;2023-02-14T12:30:33;13.80;;;3.38;;
64335;SDS011;50672;53.362;-6.240;2023-02-14T12:33:00;10.57;;;3.47;;
64335;SDS011;50672;53.362;-6.240;2023-02-14T12:38:29;18.40;;;4.13;;
64335;SDS011;50672;53.362;-6.240;2023-02-14T12:41:13;12.13;;;3.17;;
64335;SDS011;50672;53.362;-6.240;2023-02-14T12:43:57;18.47;;;3.10;;
64335;SDS011;50672;53.362;-6.240;2023-02-14T13:12:36;14.87;;;3.27;;
64335;SDS011;50672;53.362;-6.240;2023-02-14T13:14:56;12.60;;;3.60;;
64335;SDS011;50672;53.362;-6.240;2023-02-14T13:17:37;15.50;;;4.40;;
64335;SDS011;50672;53.362;-6.240;2023-02-14T13:22:50;17.77;;;3.57;;
64335;SDS011;50672;53.362;-6.240;2023-02-14T13:25:27;15.13;;;4.53;;
64335;SDS011;50672;53.362;-6.240;2023-02-14T13:28:00;15.40;;;4.17;;
64335;SDS011;50672;53.362;-6.240;2023-02-14T13:30:34;21.13;;;4.38;;
64335;SDS011;50672;53.362;-6.240;2023-02-14T13:33:07;10.93;;;3.70;;
64335;SDS011;50672;53.362;-6.240;2023-02-14T13:35:43;10.33;;;3.67;;
64335;SDS011;50672;53.362;-6.240;2023-02-14T13:38:11;20.77;;;4.93;;
64335;SDS011;50672;53.362;-6.240;2023-02-14T13:40:41;15.53;;;4.10;;
64335;SDS011;50672;53.362;-6.240;2023-02-14T13:43:08;10.37;;;3.03;;
64335;SDS011;50672;53.362;-6.240;2023-02-14T14:25:27;16.20;;;2.70;;
64335;SDS011;50672;53.362;-6.240;2023-02-14T14:27:56;12.20;;;2.60;;
64335;SDS011;50672;53.362;-6.240;2023-02-14T14:30:25;12.17;;;3.00;;
64335;SDS011;50672;53.362;-6.240;2023-02-14T14:33:10;13.32;;;2.53;;
64335;SDS011;50672;53.362;-6.240;2023-02-14T14:35:56;11.60;;;3.03;;
64335;SDS011;50672;53.362;-6.240;2023-02-14T14:38:33;8.77;;;3.17;;
64335;SDS011;50672;53.362;-6.240;2023-02-14T14:42:12;18.17;;;2.97;;
64335;SDS011;50672;53.362;-6.240;2023-02-14T14:45:41;8.83;;;2.10;;
64335;SDS011;50672;53.362;-6.240;2023-02-14T14:48:15;7.50;;;2.27;;
64335;SDS011;50672;53.362;-6.240;2023-02-14T14:50:45;8.67;;;2.00;;
64335;SDS011;50672;53.362;-6.240;2023-02-14T14:53:21;10.30;;;2.20;;
64335;SDS011;50672;53.362;-6.240;2023-02-14T14:55:53;9.70;;;2.37;;
64335;SDS011;50672;53.362;-6.240;2023-02-14T14:58:29;10.77;;;2.90;;
64335;SDS011;50672;53.362;-6.240;2023-02-14T15:00:56;11.73;;;3.17;;
64335;SDS011;50672;53.362;-6.240;2023-02-14T15:03:24;18.10;;;2.93;;
64335;SDS011;50672;53.362;-6.240;2023-02-14T15:06:05;12.13;;;2.50;;
64335;SDS011;50672;53.362;-6.240;2023-02-14T15:08:43;15.33;;;3.20;;
64335;SDS011;50672;53.362;-6.240;2023-02-14T15:12:22;11.87;;;2.57;;
64335;SDS011;50672;53.362;-6.240;2023-02-14T15:15:11;14.70;;;2.43;;
64335;SDS011;50672;53.362;-6.240;2023-02-14T15:17:41;12.87;;;3.00;;
64335;SDS011;50672;53.362;-6.240;2023-02-14T15:20:13;11.07;;;2.50;;
64335;SDS011;50672;53.362;-6.240;2023-02-14T15:22:44;11.27;;;2.77;;
64335;SDS011;50672;53.362;-6.240;2023-02-14T15:25:26;11.53;;;2.93;;
64335;SDS011;50672;53.362;-6.240;2023-02-14T15:30:24;11.70;;;3.20;;
64335;SDS011;50672;53.362;-6.240;2023-02-14T15:35:24;11.70;;;2.93;;
64335;SDS011;50672;53.362;-6.240;2023-02-14T15:37:54;14.83;;;2.57;;
64335;SDS011;50672;53.362;-6.240;2023-02-14T15:40:27;13.40;;;3.28;;
64335;SDS011;50672;53.362;-6.240;2023-02-14T15:43:13;18.00;;;4.22;;
64335;SDS011;50672;53.362;-6.240;2023-02-14T15:45:47;13.10;;;3.00;;
64335;SDS011;50672;53.362;-6.240;2023-02-14T15:48:27;10.83;;;4.13;;
64335;SDS011;50672;53.362;-6.240;2023-02-14T15:50:59;11.98;;;3.33;;
64335;SDS011;50672;53.362;-6.240;2023-02-14T15:53:30;10.83;;;3.43;;
64335;SDS011;50672;53.362;-6.240;2023-02-14T15:56:11;11.18;;;2.42;;
64335;SDS011;50672;53.362;-6.240;2023-02-14T15:58:56;8.85;;;2.65;;
64335;SDS011;50672;53.362;-6.240;2023-02-14T16:01:26;15.47;;;2.77;;
64335;SDS011;50672;53.362;-6.240;2023-02-14T16:03:54;14.90;;;4.43;;
64335;SDS011;50672;53.362;-6.240;2023-02-14T16:06:43;10.73;;;2.63;;
64335;SDS011;50672;53.362;-6.240;2023-02-14T16:09:25;11.07;;;2.97;;
64335;SDS011;50672;53.362;-6.240;2023-02-14T16:11:54;9.50;;;2.63;;
64335;SDS011;50672;53.362;-6.240;2023-02-14T16:22:22;11.47;;;2.77;;
64335;SDS011;50672;53.362;-6.240;2023-02-14T16:24:51;17.33;;;2.58;;
64335;SDS011;50672;53.362;-6.240;2023-02-14T16:27:18;11.33;;;2.93;;
64335;SDS011;50672;53.362;-6.240;2023-02-14T16:29:45;17.20;;;5.23;;
64335;SDS011;50672;53.362;-6.240;2023-02-14T16:32:12;15.97;;;5.63;;
64335;SDS011;50672;53.362;-6.240;2023-02-14T16:34:45;10.43;;;2.90;;
64335;SDS011;50672;53.362;-6.240;2023-02-14T16:37:18;17.33;;;5.07;;
64335;SDS011;50672;53.362;-6.240;2023-02-14T16:39:47;13.07;;;4.30;;
64335;SDS011;50672;53.362;-6.240;2023-02-14T16:42:20;7.18;;;3.45;;
64335;SDS011;50672;53.362;-6.240;2023-02-14T16:44:46;14.10;;;3.87;;
64335;SDS011;50672;53.362;-6.240;2023-02-14T16:47:14;12.67;;;4.73;;
64335;SDS011;50672;53.362;-6.240;2023-02-14T16:49:42;16.47;;;4.57;;
64335;SDS011;50672;53.362;-6.240;2023-02-14T16:52:13;9.87;;;3.23;;
64335;SDS011;50672;53.362;-6.240;2023-02-14T16:54:42;12.93;;;3.80;;
64335;SDS011;50672;53.362;-6.240;2023-02-14T16:57:12;16.17;;;5.07;;
64335;SDS011;50672;53.362;-6.240;2023-02-14T16:59:46;11.63;;;5.30;;
64335;SDS011;50672;53.362;-6.240;2023-02-14T17:02:13;19.47;;;5.27;;
64335;SDS011;50672;53.362;-6.240;2023-02-14T17:04:41;12.13;;;4.27;;
64335;SDS011;50672;53.362;-6.240;2023-02-14T17:07:08;12.87;;;4.57;;
64335;SDS011;50672;53.362;-6.240;2023-02-14T17:09:37;14.37;;;3.53;;
64335;SDS011;50672;53.362;-6.240;2023-02-14T17:12:08;11.40;;;3.30;;
64335;SDS011;50672;53.362;-6.240;2023-02-14T17:14:42;11.87;;;4.47;;
64335;SDS011;50672;53.362;-6.240;2023-02-14T17:17:13;12.45;;;3.20;;
64335;SDS011;50672;53.362;-6.240;2023-02-14T17:19:41;14.73;;;3.63;;
64335;SDS011;50672;53.362;-6.240;2023-02-14T17:22:08;13.63;;;4.07;;
64335;SDS011;50672;53.362;-6.240;2023-02-14T17:24:39;15.70;;;3.83;;
64335;SDS011;50672;53.362;-6.240;2023-02-14T17:27:05;9.43;;;3.53;;
64335;SDS011;50672;53.362;-6.240;2023-02-14T17:29:34;10.27;;;3.30;;
64335;SDS011;50672;53.362;-6.240;2023-02-14T17:32:00;10.47;;;3.77;;
64335;SDS011;50672;53.362;-6.240;2023-02-14T17:34:31;12.00;;;3.43;;
64335;SDS011;50672;53.362;-6.240;2023-02-14T17:36:58;8.40;;;3.57;;
64335;SDS011;50672;53.362;-6.240;2023-02-14T17:39:25;10.67;;;3.97;;
64335;SDS011;50672;53.362;-6.240;2023-02-14T17:41:52;12.30;;;3.50;;
64335;SDS011;50672;53.362;-6.240;2023-02-14T17:44:19;13.10;;;5.57;;
64335;SDS011;50672;53.362;-6.240;2023-02-14T17:46:46;23.07;;;7.10;;
64335;SDS011;50672;53.362;-6.240;2023-02-14T17:49:13;11.13;;;3.90;;
64335;SDS011;50672;53.362;-6.240;2023-02-14T17:51:40;16.87;;;5.77;;
64335;SDS011;50672;53.362;-6.240;2023-02-14T17:54:06;12.53;;;4.40;;
64335;SDS011;50672;53.362;-6.240;2023-02-14T17:56:33;13.00;;;4.07;;
64335;SDS011;50672;53.362;-6.240;2023-02-14T17:59:00;10.13;;;4.20;;
64335;SDS011;50672;53.362;-6.240;2023-02-14T18:01:28;16.43;;;4.63;;
64335;SDS011;50672;53.362;-6.240;2023-02-14T18:03:56;11.93;;;5.00;;